Nearby METAR Reports

 

KCPC - Whiteville, North Carolina, USA
Distance from station: NNE 17mi, 28km
Updated: 04/30/2017 12:55am
Clear
Clear
 Wind from S
Wind: S 3 mph , 6 km/h
Temperature: 72°F , 22°C
Dew Point: 70°F , 21°C
Humidity: 94%
Barometer: 30.19 inHg , 1022.4 hPa
Clouds: Clear
Visibility: 10 miles , 16 km
2017/04/30 04:55 KCPC 300455Z AUTO 18003KT 10SM CLR 22/21 A3019 RMK AO2 T02180210
KCRE - North Myrtle Bea, South Carolina, USA
Distance from station: SSE 19mi, 31km
Updated: 04/30/2017 12:53am
Clear
Clear
 Wind from S
Wind: S 12 mph , 19 km/h
Temperature: 73°F , 23°C
Dew Point: 72°F , 22°C
Humidity: 94%
Barometer: 30.19 inHg , 1022.4 hPa
Clouds: Clear
Visibility: 10 miles , 16 km
2017/04/30 04:53 KCRE 300453Z AUTO 19010KT 10SM CLR 23/22 A3019 RMK AO1 SLP225 T02330222 402720228
 
KHYW - Conway-Horry Cty, South Carolina, USA
Distance from station: SW 22mi, 35km
Updated: 04/30/2017 12:55am
Clear
Clear
 Wind from calm
Wind: Calm
Temperature: 68°F , 20°C
Dew Point: 66°F , 19°C
Humidity: 94%
Barometer: 30.20 inHg , 1022.7 hPa
Clouds: Clear
Visibility: 7 miles , 11 km
2017/04/30 04:55 KHYW 300455Z AUTO 00000KT 7SM CLR 20/19 A3020 RMK AO2
KMAO - Marion, South Carolina, USA
Distance from station: WNW 28mi, 45km
Updated: 04/30/2017 1:15am
Clear
Clear
 Wind from S
Wind: S 5 mph , 7 km/h
Temperature: 70°F , 21°C
Dew Point: 68°F , 20°C
Humidity: 94%
Barometer: 30.19 inHg , 1022.4 hPa
Clouds: Clear
Visibility: 7 miles , 11 km
2017/04/30 05:15 KMAO 300515Z AUTO 19004KT 7SM CLR 21/20 A3019 RMK AO2
 
KMYR - Myrtle Beach, South Carolina, USA
Distance from station: S 28mi, 45km
Updated: 04/29/2017 9:45pm
NOT Current
Clear
Clear
 Wind from S
Wind: S 12 mph , 19 km/h
Temperature: 75°F , 24°C
Dew Point: 72°F , 22°C
Humidity: 89%
Barometer: 30.22 inHg , 1023.4 hPa
Clouds: Clear
Visibility: 10 miles , 16 km
2017/04/30 01:45 KMYR 300145Z 19010KT 10SM CLR 24/22 A3022
KLBT - Lumberton, North Carolina, USA
Distance from station: NNW 39mi, 62km
Updated: 04/30/2017 12:54am
Clear
Clear
 Wind from S
Wind: S 6 mph , 9 km/h
Temperature: 72°F , 22°C
Dew Point: 70°F , 21°C
Humidity: 94%
Barometer: 30.18 inHg , 1022 hPa
Clouds: Clear
Visibility: 10 miles , 16 km
2017/04/30 04:54 KLBT 300454Z AUTO 19005KT 10SM CLR 22/21 A3018 RMK AO2 SLP219 T02170211 403110217 $
 
KSUT - Southport, North Carolina, USA
Distance from station: E 46mi, 74km
Updated: 04/30/2017 1:00am
Partly cloudy
Partly cloudy
 Wind from S
Wind: S 5 mph , 7 km/h
Temperature: 73°F , 23°C
Dew Point: 72°F , 22°C
Humidity: 94%
Barometer: 30.21 inHg , 1023 hPa
Clouds: Partly cloudy
Visibility: 10 miles , 16 km
Cloud details: Partly cloudy 1400 ft
2017/04/30 05:00 KSUT 300500Z AUTO 19004KT 10SM SCT014 23/22 A3021 RMK AO2 T02300222
KFLO - Florence, South Carolina, USA
Distance from station: W 50mi, 81km
Updated: 04/30/2017 12:53am
Clear
Clear
 Wind from S
Wind: S 6 mph , 9 km/h
Temperature: 72°F , 22°C
Dew Point: 70°F , 21°C
Humidity: 94%
Barometer: 30.19 inHg , 1022.4 hPa
Clouds: Clear
Visibility: 10 miles , 16 km
2017/04/30 04:53 KFLO 300453Z 19005KT 10SM CLR 22/21 A3019 RMK AO2 SLP220 T02170211 403220217